sensor_id;sensor_type;location;lat;lon;timestamp;temperature;humidity
34837;DHT22;21053;50.848;4.652;2023-07-02T00:00:31;18.60;99.90
34837;DHT22;21053;50.848;4.652;2023-07-02T00:03:00;18.60;99.90
34837;DHT22;21053;50.848;4.652;2023-07-02T00:05:30;18.40;99.90
34837;DHT22;21053;50.848;4.652;2023-07-02T00:07:56;18.40;99.90
34837;DHT22;21053;50.848;4.652;2023-07-02T00:10:24;18.40;99.90
34837;DHT22;21053;50.848;4.652;2023-07-02T00:12:50;18.40;99.90
34837;DHT22;21053;50.848;4.652;2023-07-02T00:15:18;18.30;99.90
34837;DHT22;21053;50.848;4.652;2023-07-02T00:17:44;18.40;99.90
34837;DHT22;21053;50.848;4.652;2023-07-02T00:20:10;18.30;99.90
34837;DHT22;21053;50.848;4.652;2023-07-02T00:22:40;18.40;99.90
34837;DHT22;21053;50.848;4.652;2023-07-02T00:25:12;18.30;99.90
34837;DHT22;21053;50.848;4.652;2023-07-02T00:27:41;18.30;99.90
34837;DHT22;21053;50.848;4.652;2023-07-02T00:30:09;18.30;99.90
34837;DHT22;21053;50.848;4.652;2023-07-02T00:32:35;18.30;99.90
34837;DHT22;21053;50.848;4.652;2023-07-02T00:35:00;18.30;99.90
34837;DHT22;21053;50.848;4.652;2023-07-02T00:37:27;18.30;99.90
34837;DHT22;21053;50.848;4.652;2023-07-02T00:39:59;18.30;99.90
34837;DHT22;21053;50.848;4.652;2023-07-02T00:42:28;18.30;99.90
34837;DHT22;21053;50.848;4.652;2023-07-02T00:44:56;18.20;99.90
34837;DHT22;21053;50.848;4.652;2023-07-02T00:47:35;18.10;99.90
34837;DHT22;21053;50.848;4.652;2023-07-02T00:50:03;18.20;99.90
34837;DHT22;21053;50.848;4.652;2023-07-02T00:52:31;18.20;99.90
34837;DHT22;21053;50.848;4.652;2023-07-02T00:54:57;18.20;99.90
34837;DHT22;21053;50.848;4.652;2023-07-02T00:57:26;18.20;99.90
34837;DHT22;21053;50.848;4.652;2023-07-02T00:59:58;18.10;99.90
34837;DHT22;21053;50.848;4.652;2023-07-02T01:02:31;18.10;99.90
34837;DHT22;21053;50.848;4.652;2023-07-02T01:04:59;18.10;99.90
34837;DHT22;21053;50.848;4.652;2023-07-02T01:07:28;18.20;99.90
34837;DHT22;21053;50.848;4.652;2023-07-02T01:09:57;18.10;99.90
34837;DHT22;21053;50.848;4.652;2023-07-02T01:12:22;18.20;99.90
34837;DHT22;21053;50.848;4.652;2023-07-02T01:14:52;18.20;99.90
34837;DHT22;21053;50.848;4.652;2023-07-02T01:17:20;18.20;99.90
34837;DHT22;21053;50.848;4.652;2023-07-02T01:19:52;18.20;99.90
34837;DHT22;21053;50.848;4.652;2023-07-02T01:22:24;18.10;99.90
34837;DHT22;21053;50.848;4.652;2023-07-02T01:24:54;18.10;99.90
34837;DHT22;21053;50.848;4.652;2023-07-02T01:27:20;18.20;99.90
34837;DHT22;21053;50.848;4.652;2023-07-02T01:29:51;18.10;99.90
34837;DHT22;21053;50.848;4.652;2023-07-02T01:32:20;18.10;99.90
34837;DHT22;21053;50.848;4.652;2023-07-02T01:34:47;18.00;99.90
34837;DHT22;21053;50.848;4.652;2023-07-02T01:37:20;18.00;99.90
34837;DHT22;21053;50.848;4.652;2023-07-02T01:39:47;18.00;99.90
34837;DHT22;21053;50.848;4.652;2023-07-02T01:42:19;18.00;99.90
34837;DHT22;21053;50.848;4.652;2023-07-02T01:44:48;18.10;99.90
34837;DHT22;21053;50.848;4.652;2023-07-02T01:47:16;18.10;99.90
34837;DHT22;21053;50.848;4.652;2023-07-02T01:49:50;18.00;99.90
34837;DHT22;21053;50.848;4.652;2023-07-02T01:52:19;18.00;99.90
34837;DHT22;21053;50.848;4.652;2023-07-02T01:54:47;18.00;99.90
34837;DHT22;21053;50.848;4.652;2023-07-02T01:57:15;17.90;99.90
34837;DHT22;21053;50.848;4.652;2023-07-02T01:59:42;18.00;99.90
34837;DHT22;21053;50.848;4.652;2023-07-02T02:02:08;17.90;99.90
34837;DHT22;21053;50.848;4.652;2023-07-02T02:04:36;18.00;99.90
34837;DHT22;21053;50.848;4.652;2023-07-02T02:07:02;18.00;99.90
34837;DHT22;21053;50.848;4.652;2023-07-02T02:09:31;18.00;99.90
34837;DHT22;21053;50.848;4.652;2023-07-02T02:12:00;18.00;99.90
34837;DHT22;21053;50.848;4.652;2023-07-02T02:14:33;18.00;99.90
34837;DHT22;21053;50.848;4.652;2023-07-02T02:17:00;18.10;99.90
34837;DHT22;21053;50.848;4.652;2023-07-02T02:19:29;18.10;99.90
34837;DHT22;21053;50.848;4.652;2023-07-02T02:21:54;18.00;99.90
34837;DHT22;21053;50.848;4.652;2023-07-02T02:24:21;17.80;99.90
34837;DHT22;21053;50.848;4.652;2023-07-02T02:26:49;17.80;99.90
34837;DHT22;21053;50.848;4.652;2023-07-02T02:29:14;17.90;99.90
34837;DHT22;21053;50.848;4.652;2023-07-02T02:31:43;17.90;99.90
34837;DHT22;21053;50.848;4.652;2023-07-02T02:34:12;17.80;99.90
34837;DHT22;21053;50.848;4.652;2023-07-02T02:36:39;17.90;99.90
34837;DHT22;21053;50.848;4.652;2023-07-02T02:39:05;17.90;99.90
34837;DHT22;21053;50.848;4.652;2023-07-02T02:41:33;17.90;99.90
34837;DHT22;21053;50.848;4.652;2023-07-02T02:44:00;18.00;99.90
34837;DHT22;21053;50.848;4.652;2023-07-02T02:46:30;18.00;99.90
34837;DHT22;21053;50.848;4.652;2023-07-02T02:48:56;17.80;99.90
34837;DHT22;21053;50.848;4.652;2023-07-02T02:51:23;17.80;99.90
34837;DHT22;21053;50.848;4.652;2023-07-02T02:53:49;17.80;99.90
34837;DHT22;21053;50.848;4.652;2023-07-02T02:56:14;17.70;99.90
34837;DHT22;21053;50.848;4.652;2023-07-02T02:58:43;17.70;99.90
34837;DHT22;21053;50.848;4.652;2023-07-02T03:01:12;17.70;99.90
34837;DHT22;21053;50.848;4.652;2023-07-02T03:03:41;17.70;99.90
34837;DHT22;21053;50.848;4.652;2023-07-02T03:06:14;17.70;99.90
34837;DHT22;21053;50.848;4.652;2023-07-02T03:08:43;17.70;99.90
34837;DHT22;21053;50.848;4.652;2023-07-02T03:11:10;17.70;99.90
34837;DHT22;21053;50.848;4.652;2023-07-02T03:13:41;17.70;99.90
34837;DHT22;21053;50.848;4.652;2023-07-02T03:16:08;17.70;99.90
34837;DHT22;21053;50.848;4.652;2023-07-02T03:18:34;17.70;99.90
34837;DHT22;21053;50.848;4.652;2023-07-02T03:21:00;17.70;99.90
34837;DHT22;21053;50.848;4.652;2023-07-02T03:23:27;17.60;99.90
34837;DHT22;21053;50.848;4.652;2023-07-02T03:25:53;17.50;99.90
34837;DHT22;21053;50.848;4.652;2023-07-02T03:28:20;17.50;99.90
34837;DHT22;21053;50.848;4.652;2023-07-02T03:30:47;17.50;99.90
34837;DHT22;21053;50.848;4.652;2023-07-02T03:33:13;17.60;99.90
34837;DHT22;21053;50.848;4.652;2023-07-02T03:35:42;17.60;99.90
34837;DHT22;21053;50.848;4.652;2023-07-02T03:38:11;17.50;99.90
34837;DHT22;21053;50.848;4.652;2023-07-02T03:40:40;17.50;99.90
34837;DHT22;21053;50.848;4.652;2023-07-02T03:43:06;17.60;99.90
34837;DHT22;21053;50.848;4.652;2023-07-02T03:45:32;17.60;99.90
34837;DHT22;21053;50.848;4.652;2023-07-02T03:48:00;17.50;99.90
34837;DHT22;21053;50.848;4.652;2023-07-02T03:50:26;17.50;99.90
34837;DHT22;21053;50.848;4.652;2023-07-02T03:52:54;17.40;99.90
34837;DHT22;21053;50.848;4.652;2023-07-02T03:55:21;17.40;99.90
34837;DHT22;21053;50.848;4.652;2023-07-02T03:57:49;17.40;99.90
34837;DHT22;21053;50.848;4.652;2023-07-02T04:00:18;17.40;99.90
34837;DHT22;21053;50.848;4.652;2023-07-02T04:02:50;17.40;99.90
34837;DHT22;21053;50.848;4.652;2023-07-02T04:05:18;17.40;99.90
34837;DHT22;21053;50.848;4.652;2023-07-02T04:07:43;17.40;99.90
34837;DHT22;21053;50.848;4.652;2023-07-02T04:10:09;17.40;99.90
34837;DHT22;21053;50.848;4.652;2023-07-02T04:12:38;17.40;99.90
34837;DHT22;21053;50.848;4.652;2023-07-02T04:15:05;17.40;99.90
34837;DHT22;21053;50.848;4.652;2023-07-02T04:17:34;17.40;99.90
34837;DHT22;21053;50.848;4.652;2023-07-02T04:20:03;17.40;99.90
34837;DHT22;21053;50.848;4.652;2023-07-02T04:22:32;17.30;99.90
34837;DHT22;21053;50.848;4.652;2023-07-02T04:26:17;17.40;99.90
34837;DHT22;21053;50.848;4.652;2023-07-02T04:28:43;17.40;99.90
34837;DHT22;21053;50.848;4.652;2023-07-02T04:31:12;17.50;99.90
34837;DHT22;21053;50.848;4.652;2023-07-02T04:33:39;17.30;99.90
34837;DHT22;21053;50.848;4.652;2023-07-02T04:36:06;17.30;99.90
34837;DHT22;21053;50.848;4.652;2023-07-02T04:38:32;17.40;99.90
34837;DHT22;21053;50.848;4.652;2023-07-02T04:41:01;17.40;99.90
34837;DHT22;21053;50.848;4.652;2023-07-02T04:43:32;17.50;99.90
34837;DHT22;21053;50.848;4.652;2023-07-02T04:46:00;17.60;99.90
34837;DHT22;21053;50.848;4.652;2023-07-02T04:48:27;17.60;99.90
34837;DHT22;21053;50.848;4.652;2023-07-02T04:50:56;17.70;99.90
34837;DHT22;21053;50.848;4.652;2023-07-02T04:53:23;17.60;99.90
34837;DHT22;21053;50.848;4.652;2023-07-02T04:55:52;17.80;99.90
34837;DHT22;21053;50.848;4.652;2023-07-02T04:58:17;17.80;99.90
34837;DHT22;21053;50.848;4.652;2023-07-02T05:00:43;17.80;99.90
34837;DHT22;21053;50.848;4.652;2023-07-02T05:03:12;17.80;99.90
34837;DHT22;21053;50.848;4.652;2023-07-02T05:05:40;18.00;99.90
34837;DHT22;21053;50.848;4.652;2023-07-02T05:08:08;18.00;99.90
34837;DHT22;21053;50.848;4.652;2023-07-02T05:10:36;18.10;99.90
34837;DHT22;21053;50.848;4.652;2023-07-02T05:13:05;18.10;99.90
34837;DHT22;21053;50.848;4.652;2023-07-02T05:15:36;17.90;99.90
34837;DHT22;21053;50.848;4.652;2023-07-02T05:18:05;18.00;99.90
34837;DHT22;21053;50.848;4.652;2023-07-02T05:20:35;18.10;99.90
34837;DHT22;21053;50.848;4.652;2023-07-02T05:23:03;18.20;99.90
34837;DHT22;21053;50.848;4.652;2023-07-02T05:25:28;18.20;99.90
34837;DHT22;21053;50.848;4.652;2023-07-02T05:27:54;18.20;99.90
34837;DHT22;21053;50.848;4.652;2023-07-02T05:30:22;18.20;99.90
34837;DHT22;21053;50.848;4.652;2023-07-02T05:32:49;18.30;99.90
34837;DHT22;21053;50.848;4.652;2023-07-02T05:35:15;18.30;99.90
34837;DHT22;21053;50.848;4.652;2023-07-02T05:37:41;18.30;99.90
34837;DHT22;21053;50.848;4.652;2023-07-02T05:40:07;18.30;99.90
34837;DHT22;21053;50.848;4.652;2023-07-02T05:42:33;18.30;99.90
34837;DHT22;21053;50.848;4.652;2023-07-02T05:44:58;18.40;99.90
34837;DHT22;21053;50.848;4.652;2023-07-02T05:47:25;18.40;99.90
34837;DHT22;21053;50.848;4.652;2023-07-02T05:49:52;18.40;99.90
34837;DHT22;21053;50.848;4.652;2023-07-02T05:52:20;18.40;99.90
34837;DHT22;21053;50.848;4.652;2023-07-02T05:54:48;18.40;99.90
34837;DHT22;21053;50.848;4.652;2023-07-02T05:57:16;18.50;99.90
34837;DHT22;21053;50.848;4.652;2023-07-02T05:59:45;18.60;99.90
34837;DHT22;21053;50.848;4.652;2023-07-02T06:02:11;18.70;99.90
34837;DHT22;21053;50.848;4.652;2023-07-02T06:04:40;18.90;99.90
34837;DHT22;21053;50.848;4.652;2023-07-02T06:07:06;18.90;99.90
34837;DHT22;21053;50.848;4.652;2023-07-02T06:09:34;18.90;99.90
34837;DHT22;21053;50.848;4.652;2023-07-02T06:12:01;18.90;99.90
34837;DHT22;21053;50.848;4.652;2023-07-02T06:14:32;18.90;99.90
34837;DHT22;21053;50.848;4.652;2023-07-02T06:16:58;18.90;99.90
34837;DHT22;21053;50.848;4.652;2023-07-02T06:19:27;18.90;99.90
34837;DHT22;21053;50.848;4.652;2023-07-02T06:21:54;19.00;99.90
34837;DHT22;21053;50.848;4.652;2023-07-02T06:24:20;19.00;99.90
34837;DHT22;21053;50.848;4.652;2023-07-02T06:26:48;19.10;99.90
34837;DHT22;21053;50.848;4.652;2023-07-02T06:29:14;19.10;99.90
34837;DHT22;21053;50.848;4.652;2023-07-02T06:31:43;19.20;99.90
34837;DHT22;21053;50.848;4.652;2023-07-02T06:34:09;19.30;99.90
34837;DHT22;21053;50.848;4.652;2023-07-02T06:36:36;19.30;99.90
34837;DHT22;21053;50.848;4.652;2023-07-02T06:39:01;19.30;99.90
34837;DHT22;21053;50.848;4.652;2023-07-02T06:41:27;19.30;99.90
34837;DHT22;21053;50.848;4.652;2023-07-02T06:43:53;19.40;99.90
34837;DHT22;21053;50.848;4.652;2023-07-02T06:46:19;19.20;99.90
34837;DHT22;21053;50.848;4.652;2023-07-02T06:48:46;19.20;99.90
34837;DHT22;21053;50.848;4.652;2023-07-02T06:51:14;19.20;99.90
34837;DHT22;21053;50.848;4.652;2023-07-02T06:53:44;19.40;99.90
34837;DHT22;21053;50.848;4.652;2023-07-02T06:56:25;19.40;99.90
34837;DHT22;21053;50.848;4.652;2023-07-02T06:59:01;19.50;99.90
34837;DHT22;21053;50.848;4.652;2023-07-02T07:01:26;19.70;99.90
34837;DHT22;21053;50.848;4.652;2023-07-02T07:03:53;19.90;99.90
34837;DHT22;21053;50.848;4.652;2023-07-02T07:06:21;19.90;99.90
34837;DHT22;21053;50.848;4.652;2023-07-02T07:08:52;19.80;99.90
34837;DHT22;21053;50.848;4.652;2023-07-02T07:11:18;19.80;99.90
34837;DHT22;21053;50.848;4.652;2023-07-02T07:13:45;19.80;99.90
34837;DHT22;21053;50.848;4.652;2023-07-02T07:16:14;19.80;99.90
34837;DHT22;21053;50.848;4.652;2023-07-02T07:18:43;19.90;99.90
34837;DHT22;21053;50.848;4.652;2023-07-02T07:21:10;19.90;99.90
34837;DHT22;21053;50.848;4.652;2023-07-02T07:23:37;20.00;99.90
34837;DHT22;21053;50.848;4.652;2023-07-02T07:26:06;20.10;99.90
34837;DHT22;21053;50.848;4.652;2023-07-02T07:28:34;20.10;99.90
34837;DHT22;21053;50.848;4.652;2023-07-02T07:31:01;20.10;99.90
34837;DHT22;21053;50.848;4.652;2023-07-02T07:33:28;20.30;99.90
34837;DHT22;21053;50.848;4.652;2023-07-02T07:35:54;20.50;99.90
34837;DHT22;21053;50.848;4.652;2023-07-02T07:38:20;20.50;99.80
34837;DHT22;21053;50.848;4.652;2023-07-02T07:40:45;20.70;97.90
34837;DHT22;21053;50.848;4.652;2023-07-02T07:43:11;20.70;98.10
34837;DHT22;21053;50.848;4.652;2023-07-02T07:45:37;20.80;97.90
34837;DHT22;21053;50.848;4.652;2023-07-02T07:48:05;21.00;97.30
34837;DHT22;21053;50.848;4.652;2023-07-02T07:50:34;21.10;97.00
34837;DHT22;21053;50.848;4.652;2023-07-02T07:53:03;21.20;96.70
34837;DHT22;21053;50.848;4.652;2023-07-02T07:55:32;21.20;97.00
34837;DHT22;21053;50.848;4.652;2023-07-02T07:58:03;21.00;96.40
34837;DHT22;21053;50.848;4.652;2023-07-02T08:00:31;21.10;96.60
34837;DHT22;21053;50.848;4.652;2023-07-02T08:02:58;20.80;96.80
34837;DHT22;21053;50.848;4.652;2023-07-02T08:05:26;20.70;97.20
34837;DHT22;21053;50.848;4.652;2023-07-02T08:07:53;20.70;97.30
34837;DHT22;21053;50.848;4.652;2023-07-02T08:10:22;20.90;97.30
34837;DHT22;21053;50.848;4.652;2023-07-02T08:12:50;21.10;97.00
34837;DHT22;21053;50.848;4.652;2023-07-02T08:15:18;21.20;96.00
34837;DHT22;21053;50.848;4.652;2023-07-02T08:17:45;21.20;95.80
34837;DHT22;21053;50.848;4.652;2023-07-02T08:20:11;21.40;95.60
34837;DHT22;21053;50.848;4.652;2023-07-02T08:22:39;21.40;94.90
34837;DHT22;21053;50.848;4.652;2023-07-02T08:25:05;21.50;94.90
34837;DHT22;21053;50.848;4.652;2023-07-02T08:27:31;21.70;96.00
34837;DHT22;21053;50.848;4.652;2023-07-02T08:29:59;21.70;95.60
34837;DHT22;21053;50.848;4.652;2023-07-02T08:32:25;21.90;94.80
34837;DHT22;21053;50.848;4.652;2023-07-02T08:34:54;22.00;94.90
34837;DHT22;21053;50.848;4.652;2023-07-02T08:37:20;22.10;93.90
34837;DHT22;21053;50.848;4.652;2023-07-02T08:39:49;22.10;94.30
34837;DHT22;21053;50.848;4.652;2023-07-02T08:42:16;22.30;95.20
34837;DHT22;21053;50.848;4.652;2023-07-02T08:44:47;22.30;94.30
34837;DHT22;21053;50.848;4.652;2023-07-02T08:47:13;22.40;94.50
34837;DHT22;21053;50.848;4.652;2023-07-02T08:49:42;22.60;92.80
34837;DHT22;21053;50.848;4.652;2023-07-02T08:52:09;22.80;93.70
34837;DHT22;21053;50.848;4.652;2023-07-02T08:54:35;23.00;93.10
34837;DHT22;21053;50.848;4.652;2023-07-02T08:57:03;22.90;92.70
34837;DHT22;21053;50.848;4.652;2023-07-02T08:59:32;22.80;92.00
34837;DHT22;21053;50.848;4.652;2023-07-02T09:01:58;22.60;93.30
34837;DHT22;21053;50.848;4.652;2023-07-02T09:04:26;22.40;93.00
34837;DHT22;21053;50.848;4.652;2023-07-02T09:07:09;22.10;94.00
34837;DHT22;21053;50.848;4.652;2023-07-02T09:09:49;21.90;93.20
34837;DHT22;21053;50.848;4.652;2023-07-02T09:12:30;21.60;93.50
34837;DHT22;21053;50.848;4.652;2023-07-02T09:15:02;21.30;94.60
34837;DHT22;21053;50.848;4.652;2023-07-02T09:17:33;21.20;95.50
34837;DHT22;21053;50.848;4.652;2023-07-02T09:20:04;21.20;95.80
34837;DHT22;21053;50.848;4.652;2023-07-02T09:22:36;21.60;95.90
34837;DHT22;21053;50.848;4.652;2023-07-02T09:25:05;21.80;94.40
34837;DHT22;21053;50.848;4.652;2023-07-02T09:27:38;21.80;92.80
34837;DHT22;21053;50.848;4.652;2023-07-02T09:30:22;21.70;94.00
34837;DHT22;21053;50.848;4.652;2023-07-02T09:32:48;21.70;94.70
34837;DHT22;21053;50.848;4.652;2023-07-02T09:35:17;21.40;93.50
34837;DHT22;21053;50.848;4.652;2023-07-02T09:37:46;21.30;94.60
34837;DHT22;21053;50.848;4.652;2023-07-02T09:40:14;21.40;95.00
34837;DHT22;21053;50.848;4.652;2023-07-02T09:42:43;21.60;95.30
34837;DHT22;21053;50.848;4.652;2023-07-02T09:45:12;21.60;94.50
34837;DHT22;21053;50.848;4.652;2023-07-02T09:47:44;21.80;94.30
34837;DHT22;21053;50.848;4.652;2023-07-02T09:50:16;21.90;94.20
34837;DHT22;21053;50.848;4.652;2023-07-02T09:52:46;21.80;93.60
34837;DHT22;21053;50.848;4.652;2023-07-02T09:55:15;21.80;93.00
34837;DHT22;21053;50.848;4.652;2023-07-02T09:57:44;22.00;93.40
34837;DHT22;21053;50.848;4.652;2023-07-02T10:00:17;21.90;93.00
34837;DHT22;21053;50.848;4.652;2023-07-02T10:02:49;21.80;93.50
34837;DHT22;21053;50.848;4.652;2023-07-02T10:05:31;21.60;92.70
34837;DHT22;21053;50.848;4.652;2023-07-02T10:08:10;21.60;93.60
34837;DHT22;21053;50.848;4.652;2023-07-02T10:10:41;21.70;93.20
34837;DHT22;21053;50.848;4.652;2023-07-02T10:13:09;22.10;93.60
34837;DHT22;21053;50.848;4.652;2023-07-02T10:15:38;22.30;93.00
34837;DHT22;21053;50.848;4.652;2023-07-02T10:18:06;22.30;93.60
34837;DHT22;21053;50.848;4.652;2023-07-02T10:20:39;22.20;92.30
34837;DHT22;21053;50.848;4.652;2023-07-02T10:23:09;21.90;92.60
34837;DHT22;21053;50.848;4.652;2023-07-02T10:25:39;21.80;92.20
34837;DHT22;21053;50.848;4.652;2023-07-02T10:28:20;21.60;91.40
34837;DHT22;21053;50.848;4.652;2023-07-02T10:30:53;21.60;92.30
34837;DHT22;21053;50.848;4.652;2023-07-02T10:33:22;21.60;93.20
34837;DHT22;21053;50.848;4.652;2023-07-02T10:35:51;21.70;91.30
34837;DHT22;21053;50.848;4.652;2023-07-02T10:38:24;21.70;91.60
34837;DHT22;21053;50.848;4.652;2023-07-02T10:40:58;21.90;92.80
34837;DHT22;21053;50.848;4.652;2023-07-02T10:43:30;22.50;93.30
34837;DHT22;21053;50.848;4.652;2023-07-02T10:46:00;22.90;90.90
34837;DHT22;21053;50.848;4.652;2023-07-02T10:48:28;22.80;89.80
34837;DHT22;21053;50.848;4.652;2023-07-02T10:51:11;22.80;91.30
34837;DHT22;21053;50.848;4.652;2023-07-02T10:53:40;23.00;89.30
34837;DHT22;21053;50.848;4.652;2023-07-02T10:56:08;23.60;86.90
34837;DHT22;21053;50.848;4.652;2023-07-02T10:58:46;23.70;85.90
34837;DHT22;21053;50.848;4.652;2023-07-02T11:01:13;23.30;87.50
34837;DHT22;21053;50.848;4.652;2023-07-02T11:03:42;23.20;87.80
34837;DHT22;21053;50.848;4.652;2023-07-02T11:06:09;23.10;85.70
34837;DHT22;21053;50.848;4.652;2023-07-02T11:08:38;22.80;86.50
34837;DHT22;21053;50.848;4.652;2023-07-02T11:11:12;22.70;87.90
34837;DHT22;21053;50.848;4.652;2023-07-02T11:13:48;22.90;89.20
34837;DHT22;21053;50.848;4.652;2023-07-02T11:16:28;23.00;84.10
34837;DHT22;21053;50.848;4.652;2023-07-02T11:19:08;22.70;88.10
34837;DHT22;21053;50.848;4.652;2023-07-02T11:21:37;22.70;90.20
34837;DHT22;21053;50.848;4.652;2023-07-02T11:24:05;23.10;85.50
34837;DHT22;21053;50.848;4.652;2023-07-02T11:26:40;23.70;83.90
34837;DHT22;21053;50.848;4.652;2023-07-02T11:29:18;24.20;86.60
34837;DHT22;21053;50.848;4.652;2023-07-02T11:31:48;24.20;87.30
34837;DHT22;21053;50.848;4.652;2023-07-02T11:34:17;24.10;84.40
34837;DHT22;21053;50.848;4.652;2023-07-02T11:36:57;24.10;88.20
34837;DHT22;21053;50.848;4.652;2023-07-02T11:39:24;23.60;85.50
34837;DHT22;21053;50.848;4.652;2023-07-02T11:41:49;23.60;78.00
34837;DHT22;21053;50.848;4.652;2023-07-02T11:44:16;23.60;79.20
34837;DHT22;21053;50.848;4.652;2023-07-02T11:46:47;23.40;78.90
34837;DHT22;21053;50.848;4.652;2023-07-02T11:49:13;23.30;80.60
34837;DHT22;21053;50.848;4.652;2023-07-02T11:51:43;23.00;80.20
34837;DHT22;21053;50.848;4.652;2023-07-02T11:54:16;23.00;81.80
34837;DHT22;21053;50.848;4.652;2023-07-02T11:56:48;23.00;85.10
34837;DHT22;21053;50.848;4.652;2023-07-02T11:59:13;23.10;86.20
34837;DHT22;21053;50.848;4.652;2023-07-02T12:01:39;23.10;85.30
34837;DHT22;21053;50.848;4.652;2023-07-02T12:04:09;23.20;85.80
34837;DHT22;21053;50.848;4.652;2023-07-02T12:06:39;23.30;84.50
34837;DHT22;21053;50.848;4.652;2023-07-02T12:09:05;23.40;84.40
34837;DHT22;21053;50.848;4.652;2023-07-02T12:14:00;23.40;82.60
34837;DHT22;21053;50.848;4.652;2023-07-02T12:16:27;23.40;82.30
34837;DHT22;21053;50.848;4.652;2023-07-02T12:18:54;23.40;78.30
34837;DHT22;21053;50.848;4.652;2023-07-02T12:21:22;23.40;78.40
34837;DHT22;21053;50.848;4.652;2023-07-02T12:23:51;23.50;80.70
34837;DHT22;21053;50.848;4.652;2023-07-02T12:26:19;23.80;78.60
34837;DHT22;21053;50.848;4.652;2023-07-02T12:28:46;24.10;80.80
34837;DHT22;21053;50.848;4.652;2023-07-02T12:31:11;24.50;84.90
34837;DHT22;21053;50.848;4.652;2023-07-02T12:33:38;24.80;78.20
34837;DHT22;21053;50.848;4.652;2023-07-02T12:36:11;24.70;77.90
34837;DHT22;21053;50.848;4.652;2023-07-02T12:38:40;24.70;79.20
34837;DHT22;21053;50.848;4.652;2023-07-02T12:41:08;25.00;82.30
34837;DHT22;21053;50.848;4.652;2023-07-02T12:43:35;25.00;78.00
34837;DHT22;21053;50.848;4.652;2023-07-02T12:46:07;24.80;74.50
34837;DHT22;21053;50.848;4.652;2023-07-02T12:48:32;24.40;76.70
34837;DHT22;21053;50.848;4.652;2023-07-02T12:51:01;24.20;74.80
34837;DHT22;21053;50.848;4.652;2023-07-02T12:53:28;23.90;74.40
34837;DHT22;21053;50.848;4.652;2023-07-02T12:55:56;23.70;76.30
34837;DHT22;21053;50.848;4.652;2023-07-02T12:58:22;24.10;74.90
34837;DHT22;21053;50.848;4.652;2023-07-02T13:00:51;24.30;73.40
34837;DHT22;21053;50.848;4.652;2023-07-02T13:03:17;24.30;72.50
34837;DHT22;21053;50.848;4.652;2023-07-02T13:05:44;24.20;74.60
34837;DHT22;21053;50.848;4.652;2023-07-02T13:08:13;24.10;74.30
34837;DHT22;21053;50.848;4.652;2023-07-02T13:10:41;24.00;73.90
34837;DHT22;21053;50.848;4.652;2023-07-02T13:13:09;24.40;80.30
34837;DHT22;21053;50.848;4.652;2023-07-02T13:15:38;24.50;76.30
34837;DHT22;21053;50.848;4.652;2023-07-02T13:18:07;24.70;75.60
34837;DHT22;21053;50.848;4.652;2023-07-02T13:20:36;24.90;76.00
34837;DHT22;21053;50.848;4.652;2023-07-02T13:23:04;25.10;75.60
34837;DHT22;21053;50.848;4.652;2023-07-02T13:25:31;25.30;76.90
34837;DHT22;21053;50.848;4.652;2023-07-02T13:27:57;25.40;73.20
34837;DHT22;21053;50.848;4.652;2023-07-02T13:30:25;25.10;74.50
34837;DHT22;21053;50.848;4.652;2023-07-02T13:32:53;25.30;77.20
34837;DHT22;21053;50.848;4.652;2023-07-02T13:35:22;25.40;72.50
34837;DHT22;21053;50.848;4.652;2023-07-02T13:37:48;25.50;72.20
34837;DHT22;21053;50.848;4.652;2023-07-02T13:40:17;25.20;71.40
34837;DHT22;21053;50.848;4.652;2023-07-02T13:42:44;25.20;71.10
34837;DHT22;21053;50.848;4.652;2023-07-02T13:45:11;25.10;71.40
34837;DHT22;21053;50.848;4.652;2023-07-02T13:47:38;25.10;70.50
34837;DHT22;21053;50.848;4.652;2023-07-02T13:50:04;24.80;73.00
34837;DHT22;21053;50.848;4.652;2023-07-02T13:52:30;24.60;75.50
34837;DHT22;21053;50.848;4.652;2023-07-02T13:54:56;25.00;75.70
34837;DHT22;21053;50.848;4.652;2023-07-02T13:57:25;25.40;73.30
34837;DHT22;21053;50.848;4.652;2023-07-02T13:59:52;25.30;72.50
34837;DHT22;21053;50.848;4.652;2023-07-02T14:02:21;25.40;73.30
34837;DHT22;21053;50.848;4.652;2023-07-02T14:04:47;25.20;73.90
34837;DHT22;21053;50.848;4.652;2023-07-02T14:07:16;25.20;74.70
34837;DHT22;21053;50.848;4.652;2023-07-02T14:09:44;25.00;73.30
34837;DHT22;21053;50.848;4.652;2023-07-02T14:12:10;25.00;77.30
34837;DHT22;21053;50.848;4.652;2023-07-02T14:14:37;25.00;76.30
34837;DHT22;21053;50.848;4.652;2023-07-02T14:17:06;25.00;76.00
34837;DHT22;21053;50.848;4.652;2023-07-02T14:19:35;24.90;76.40
34837;DHT22;21053;50.848;4.652;2023-07-02T14:22:01;25.10;73.00
34837;DHT22;21053;50.848;4.652;2023-07-02T14:24:28;25.30;74.40
34837;DHT22;21053;50.848;4.652;2023-07-02T14:26:56;25.50;75.90
34837;DHT22;21053;50.848;4.652;2023-07-02T14:29:22;25.50;70.80
34837;DHT22;21053;50.848;4.652;2023-07-02T14:31:48;25.70;73.60
34837;DHT22;21053;50.848;4.652;2023-07-02T14:34:16;25.70;71.30
34837;DHT22;21053;50.848;4.652;2023-07-02T14:36:44;25.70;74.40
34837;DHT22;21053;50.848;4.652;2023-07-02T14:39:09;25.90;73.30
34837;DHT22;21053;50.848;4.652;2023-07-02T14:41:38;25.70;75.20
34837;DHT22;21053;50.848;4.652;2023-07-02T14:44:07;25.70;72.80
34837;DHT22;21053;50.848;4.652;2023-07-02T14:46:34;25.50;72.80
34837;DHT22;21053;50.848;4.652;2023-07-02T14:49:01;25.30;71.60
34837;DHT22;21053;50.848;4.652;2023-07-02T14:51:27;25.00;72.70
34837;DHT22;21053;50.848;4.652;2023-07-02T14:53:53;24.80;72.40
34837;DHT22;21053;50.848;4.652;2023-07-02T14:56:20;24.60;74.60
34837;DHT22;21053;50.848;4.652;2023-07-02T14:58:46;24.60;75.30
34837;DHT22;21053;50.848;4.652;2023-07-02T15:01:13;24.50;76.30
34837;DHT22;21053;50.848;4.652;2023-07-02T15:03:38;24.70;76.10
34837;DHT22;21053;50.848;4.652;2023-07-02T15:06:18;24.80;75.70
34837;DHT22;21053;50.848;4.652;2023-07-02T15:08:51;25.00;73.30
34837;DHT22;21053;50.848;4.652;2023-07-02T15:11:48;24.90;73.80
34837;DHT22;21053;50.848;4.652;2023-07-02T15:14:23;24.70;73.10
34837;DHT22;21053;50.848;4.652;2023-07-02T15:16:50;24.70;75.20
34837;DHT22;21053;50.848;4.652;2023-07-02T15:19:18;24.80;77.20
34837;DHT22;21053;50.848;4.652;2023-07-02T15:21:45;24.80;76.20
34837;DHT22;21053;50.848;4.652;2023-07-02T15:24:15;24.50;75.90
34837;DHT22;21053;50.848;4.652;2023-07-02T15:26:44;24.50;78.20
34837;DHT22;21053;50.848;4.652;2023-07-02T15:29:12;24.70;78.40
34837;DHT22;21053;50.848;4.652;2023-07-02T15:31:37;24.80;74.60
34837;DHT22;21053;50.848;4.652;2023-07-02T15:34:06;24.90;76.10
34837;DHT22;21053;50.848;4.652;2023-07-02T15:36:32;24.80;75.90
34837;DHT22;21053;50.848;4.652;2023-07-02T15:39:03;24.80;75.40
34837;DHT22;21053;50.848;4.652;2023-07-02T15:41:29;24.60;75.60